Ana Sayfa
METAR-TAF:

METAR-TAF

Havaalanları :

Malindi, Kenya

Enlem: 03-14S, Boylam: 040-06E, yükseklik: 20 m

Güncel hava durumu gözlemi

Rapor saat 18:00 UTC de 4 saat ve 53 dakika önce yapıldı.
Rüzgar güney/güneybatıdan 30 kt
Sıcaklık 28°C
Nem 74%
Basınç 1012 hPa
Görüş mesafesi 10 km veya daha fazla
2000 ft yükseklikte parçalı bulutlu

METAR: HKML 211800Z 21030KT 9999 SCT020 28/23 Q1012

Saat: 01:53 (22:53 UTC)

Tahmin

Rapor saat 17:00 UTC de 5 saat ve 53 dakika önce yapıldı.
Ayın 21'si saat 18 UTC'den ayın 22'si saat 18 UTC'ye kadar geçerli Tahmin
Rüzgar güney/güneybatıdan 20 kt
Görüş mesafesi 10 km veya daha fazla
2200 ft yükseklikte parçalı çok bulutlu
Dönüşüyor
ayın 22'si saat 00 UTC'den ayın 22'si saat 03 UTC'ye kadar
Rüzgar güneydan 10 kt
2000 ft yükseklikte parçalı bulutlu
8000 ft yükseklikte parçalı çok bulutlu
yağmur,

TAF: HKML 211700Z 2118/2218 20020KT 9999 BKN022 BECMG 2200/2203 18010KT RA SCT020 BKN080

4.000'den fazla havaalanı için hava durumu gözlemleri ve tahminleri (METAR ve TAF raporları).

Kullanılabilir istasyonlar harita üzerinde sarı ve kırmızı noktalarla gösterilir.

İstasyonun adını görmek için fareyi noktanın üzerinde gezdirin.

Sonrasında hava gözlem ve tahminlerini görmek için tıklayın.

Haritayı değiştirmek için: yaklaştırmak için siyah artı işaretli yeşil düğmeye ve uzaklaştırmak için de eksi işaretli düğmeye hızla tıklayın; bitişik haritalar için yeşil okları kullanın.


METAR-TAF: